sensor_id;sensor_type;location;lat;lon;timestamp;P1;durP1;ratioP1;P2;durP2;ratioP2
1320;SDS011;653;51.480;11.992;2022-10-17T00:00:35;4.43;;;4.03;;
1320;SDS011;653;51.480;11.992;2022-10-17T00:03:02;6.47;;;4.20;;
1320;SDS011;653;51.480;11.992;2022-10-17T00:05:28;5.37;;;4.63;;
1320;SDS011;653;51.480;11.992;2022-10-17T00:07:53;5.90;;;4.07;;
1320;SDS011;653;51.480;11.992;2022-10-17T00:10:20;6.60;;;5.53;;
1320;SDS011;653;51.480;11.992;2022-10-17T00:12:46;6.00;;;5.37;;
1320;SDS011;653;51.480;11.992;2022-10-17T00:15:15;10.03;;;4.70;;
1320;SDS011;653;51.480;11.992;2022-10-17T00:17:43;5.50;;;5.00;;
1320;SDS011;653;51.480;11.992;2022-10-17T00:20:10;7.50;;;4.13;;
1320;SDS011;653;51.480;11.992;2022-10-17T00:22:36;5.50;;;4.90;;
1320;SDS011;653;51.480;11.992;2022-10-17T00:25:04;6.20;;;5.60;;
1320;SDS011;653;51.480;11.992;2022-10-17T00:27:35;7.63;;;5.33;;
1320;SDS011;653;51.480;11.992;2022-10-17T00:30:05;5.50;;;4.53;;
1320;SDS011;653;51.480;11.992;2022-10-17T00:32:33;9.60;;;7.50;;
1320;SDS011;653;51.480;11.992;2022-10-17T00:35:00;9.30;;;6.20;;
1320;SDS011;653;51.480;11.992;2022-10-17T00:37:26;12.17;;;6.57;;
1320;SDS011;653;51.480;11.992;2022-10-17T00:39:52;6.03;;;5.43;;
1320;SDS011;653;51.480;11.992;2022-10-17T00:42:19;6.20;;;4.87;;
1320;SDS011;653;51.480;11.992;2022-10-17T00:47:17;6.10;;;5.50;;
1320;SDS011;653;51.480;11.992;2022-10-17T00:49:44;6.63;;;5.60;;
1320;SDS011;653;51.480;11.992;2022-10-17T00:52:14;6.80;;;5.90;;
1320;SDS011;653;51.480;11.992;2022-10-17T00:54:45;7.40;;;5.93;;
1320;SDS011;653;51.480;11.992;2022-10-17T00:57:14;8.00;;;7.20;;
1320;SDS011;653;51.480;11.992;2022-10-17T00:59:42;7.57;;;6.87;;
1320;SDS011;653;51.480;11.992;2022-10-17T01:02:12;12.07;;;7.27;;
1320;SDS011;653;51.480;11.992;2022-10-17T01:04:43;10.60;;;7.90;;
1320;SDS011;653;51.480;11.992;2022-10-17T01:07:11;11.40;;;8.63;;
1320;SDS011;653;51.480;11.992;2022-10-17T01:09:37;10.93;;;9.67;;
1320;SDS011;653;51.480;11.992;2022-10-17T01:26:36;11.50;;;9.00;;
1320;SDS011;653;51.480;11.992;2022-10-17T01:32:27;8.87;;;7.80;;
1320;SDS011;653;51.480;11.992;2022-10-17T01:35:11;7.90;;;7.20;;
1320;SDS011;653;51.480;11.992;2022-10-17T01:37:43;8.70;;;7.80;;
1320;SDS011;653;51.480;11.992;2022-10-17T01:43:25;9.30;;;7.50;;
1320;SDS011;653;51.480;11.992;2022-10-17T01:46:02;8.40;;;7.60;;
1320;SDS011;653;51.480;11.992;2022-10-17T01:48:36;10.00;;;9.00;;
1320;SDS011;653;51.480;11.992;2022-10-17T01:51:25;8.93;;;8.00;;
1320;SDS011;653;51.480;11.992;2022-10-17T01:53:59;9.60;;;7.03;;
1320;SDS011;653;51.480;11.992;2022-10-17T01:56:29;8.97;;;8.07;;
1320;SDS011;653;51.480;11.992;2022-10-17T01:58:56;11.23;;;7.30;;
1320;SDS011;653;51.480;11.992;2022-10-17T02:01:27;7.07;;;6.20;;
1320;SDS011;653;51.480;11.992;2022-10-17T02:03:54;9.10;;;6.83;;
1320;SDS011;653;51.480;11.992;2022-10-17T02:06:21;9.00;;;7.10;;
1320;SDS011;653;51.480;11.992;2022-10-17T02:08:48;8.53;;;6.77;;
1320;SDS011;653;51.480;11.992;2022-10-17T02:11:16;7.37;;;6.67;;
1320;SDS011;653;51.480;11.992;2022-10-17T02:17:08;7.37;;;6.67;;
1320;SDS011;653;51.480;11.992;2022-10-17T02:28:46;7.87;;;6.90;;
1320;SDS011;653;51.480;11.992;2022-10-17T02:31:46;12.80;;;7.77;;
1320;SDS011;653;51.480;11.992;2022-10-17T02:34:58;8.60;;;6.30;;
1320;SDS011;653;51.480;11.992;2022-10-17T02:37:31;7.83;;;6.60;;
1320;SDS011;653;51.480;11.992;2022-10-17T02:39:58;8.50;;;7.70;;
1320;SDS011;653;51.480;11.992;2022-10-17T02:42:29;8.10;;;6.60;;
1320;SDS011;653;51.480;11.992;2022-10-17T02:45:00;7.67;;;6.90;;
1320;SDS011;653;51.480;11.992;2022-10-17T02:47:45;8.10;;;6.80;;
1320;SDS011;653;51.480;11.992;2022-10-17T02:50:38;7.10;;;6.40;;
1320;SDS011;653;51.480;11.992;2022-10-17T02:56:16;9.47;;;7.57;;
1320;SDS011;653;51.480;11.992;2022-10-17T02:58:45;10.73;;;7.33;;
1320;SDS011;653;51.480;11.992;2022-10-17T03:01:14;8.23;;;6.90;;
1320;SDS011;653;51.480;11.992;2022-10-17T03:03:41;10.10;;;6.90;;
1320;SDS011;653;51.480;11.992;2022-10-17T03:06:08;8.07;;;7.20;;
1320;SDS011;653;51.480;11.992;2022-10-17T03:08:34;9.37;;;7.03;;
1320;SDS011;653;51.480;11.992;2022-10-17T03:11:00;7.53;;;6.53;;
1320;SDS011;653;51.480;11.992;2022-10-17T03:13:28;8.67;;;7.30;;
1320;SDS011;653;51.480;11.992;2022-10-17T03:15:58;9.20;;;6.67;;
1320;SDS011;653;51.480;11.992;2022-10-17T03:18:25;8.47;;;7.00;;
1320;SDS011;653;51.480;11.992;2022-10-17T03:20:55;7.80;;;7.00;;
1320;SDS011;653;51.480;11.992;2022-10-17T03:23:21;7.73;;;6.20;;
1320;SDS011;653;51.480;11.992;2022-10-17T03:25:48;7.90;;;6.77;;
1320;SDS011;653;51.480;11.992;2022-10-17T03:28:13;7.57;;;6.77;;
1320;SDS011;653;51.480;11.992;2022-10-17T03:30:46;8.13;;;6.60;;
1320;SDS011;653;51.480;11.992;2022-10-17T03:33:13;7.83;;;6.97;;
1320;SDS011;653;51.480;11.992;2022-10-17T03:35:41;8.10;;;6.50;;
1320;SDS011;653;51.480;11.992;2022-10-17T03:38:07;8.07;;;7.33;;
1320;SDS011;653;51.480;11.992;2022-10-17T03:40:34;6.70;;;6.00;;
1320;SDS011;653;51.480;11.992;2022-10-17T03:43:00;8.93;;;7.80;;
1320;SDS011;653;51.480;11.992;2022-10-17T03:45:27;6.97;;;6.30;;
1320;SDS011;653;51.480;11.992;2022-10-17T03:47:54;8.73;;;6.57;;
1320;SDS011;653;51.480;11.992;2022-10-17T03:50:21;9.43;;;6.30;;
1320;SDS011;653;51.480;11.992;2022-10-17T03:52:48;6.90;;;6.10;;
1320;SDS011;653;51.480;11.992;2022-10-17T03:55:15;7.47;;;6.60;;
1320;SDS011;653;51.480;11.992;2022-10-17T03:57:42;7.80;;;6.90;;
1320;SDS011;653;51.480;11.992;2022-10-17T04:00:08;8.43;;;6.27;;
1320;SDS011;653;51.480;11.992;2022-10-17T04:02:36;11.07;;;7.13;;
1320;SDS011;653;51.480;11.992;2022-10-17T04:05:11;11.23;;;7.23;;
1320;SDS011;653;51.480;11.992;2022-10-17T04:07:38;9.60;;;6.90;;
1320;SDS011;653;51.480;11.992;2022-10-17T04:10:07;7.60;;;6.53;;
1320;SDS011;653;51.480;11.992;2022-10-17T04:12:34;7.30;;;6.50;;
1320;SDS011;653;51.480;11.992;2022-10-17T04:15:00;8.57;;;7.70;;
1320;SDS011;653;51.480;11.992;2022-10-17T04:17:29;9.77;;;7.00;;
1320;SDS011;653;51.480;11.992;2022-10-17T04:19:56;7.00;;;6.20;;
1320;SDS011;653;51.480;11.992;2022-10-17T04:22:24;9.20;;;6.20;;
1320;SDS011;653;51.480;11.992;2022-10-17T04:24:50;7.80;;;7.00;;
1320;SDS011;653;51.480;11.992;2022-10-17T04:27:16;7.87;;;6.07;;
1320;SDS011;653;51.480;11.992;2022-10-17T04:29:43;9.63;;;6.03;;
1320;SDS011;653;51.480;11.992;2022-10-17T04:32:08;6.93;;;6.23;;
1320;SDS011;653;51.480;11.992;2022-10-17T04:34:34;7.90;;;6.43;;
1320;SDS011;653;51.480;11.992;2022-10-17T04:37:02;8.83;;;7.10;;
1320;SDS011;653;51.480;11.992;2022-10-17T04:39:29;10.03;;;6.40;;
1320;SDS011;653;51.480;11.992;2022-10-17T04:41:56;12.10;;;6.80;;
1320;SDS011;653;51.480;11.992;2022-10-17T04:44:23;7.07;;;6.37;;
1320;SDS011;653;51.480;11.992;2022-10-17T04:46:48;8.30;;;6.30;;
1320;SDS011;653;51.480;11.992;2022-10-17T04:49:14;13.70;;;7.13;;
1320;SDS011;653;51.480;11.992;2022-10-17T04:51:40;8.97;;;6.23;;
1320;SDS011;653;51.480;11.992;2022-10-17T04:54:07;8.90;;;6.07;;
1320;SDS011;653;51.480;11.992;2022-10-17T04:56:34;5.80;;;5.27;;
1320;SDS011;653;51.480;11.992;2022-10-17T04:59:01;7.57;;;6.10;;
1320;SDS011;653;51.480;11.992;2022-10-17T05:01:27;6.87;;;6.27;;
1320;SDS011;653;51.480;11.992;2022-10-17T05:03:54;7.57;;;6.00;;
1320;SDS011;653;51.480;11.992;2022-10-17T05:06:23;5.90;;;5.30;;
1320;SDS011;653;51.480;11.992;2022-10-17T05:08:53;7.10;;;5.00;;
1320;SDS011;653;51.480;11.992;2022-10-17T05:11:23;9.83;;;6.20;;
1320;SDS011;653;51.480;11.992;2022-10-17T05:13:53;5.90;;;5.40;;
1320;SDS011;653;51.480;11.992;2022-10-17T05:16:21;7.53;;;6.00;;
1320;SDS011;653;51.480;11.992;2022-10-17T05:18:49;7.00;;;5.97;;
1320;SDS011;653;51.480;11.992;2022-10-17T05:21:15;7.77;;;6.37;;
1320;SDS011;653;51.480;11.992;2022-10-17T05:23:43;8.73;;;6.47;;
1320;SDS011;653;51.480;11.992;2022-10-17T05:26:09;10.03;;;6.07;;
1320;SDS011;653;51.480;11.992;2022-10-17T05:28:36;8.10;;;6.30;;
1320;SDS011;653;51.480;11.992;2022-10-17T05:31:03;7.30;;;6.60;;
1320;SDS011;653;51.480;11.992;2022-10-17T05:33:30;9.17;;;6.63;;
1320;SDS011;653;51.480;11.992;2022-10-17T05:35:57;7.17;;;6.47;;
1320;SDS011;653;51.480;11.992;2022-10-17T05:38:24;8.80;;;6.00;;
1320;SDS011;653;51.480;11.992;2022-10-17T05:40:51;9.83;;;6.13;;
1320;SDS011;653;51.480;11.992;2022-10-17T05:43:18;6.07;;;5.47;;
1320;SDS011;653;51.480;11.992;2022-10-17T05:45:44;8.03;;;5.90;;
1320;SDS011;653;51.480;11.992;2022-10-17T05:48:11;6.33;;;5.73;;
1320;SDS011;653;51.480;11.992;2022-10-17T05:50:38;6.87;;;6.10;;
1320;SDS011;653;51.480;11.992;2022-10-17T05:53:05;9.10;;;7.27;;
1320;SDS011;653;51.480;11.992;2022-10-17T05:55:30;7.80;;;6.27;;
1320;SDS011;653;51.480;11.992;2022-10-17T05:57:55;9.30;;;6.47;;
1320;SDS011;653;51.480;11.992;2022-10-17T06:00:23;7.90;;;6.97;;
1320;SDS011;653;51.480;11.992;2022-10-17T06:02:50;6.80;;;6.10;;
1320;SDS011;653;51.480;11.992;2022-10-17T06:05:18;6.37;;;5.70;;
1320;SDS011;653;51.480;11.992;2022-10-17T06:07:45;5.70;;;5.20;;
1320;SDS011;653;51.480;11.992;2022-10-17T06:10:15;10.63;;;6.97;;
1320;SDS011;653;51.480;11.992;2022-10-17T06:12:43;6.07;;;5.43;;
1320;SDS011;653;51.480;11.992;2022-10-17T06:15:11;8.73;;;5.70;;
1320;SDS011;653;51.480;11.992;2022-10-17T06:17:38;10.80;;;6.03;;
1320;SDS011;653;51.480;11.992;2022-10-17T06:20:04;7.30;;;6.17;;
1320;SDS011;653;51.480;11.992;2022-10-17T06:22:32;9.70;;;5.70;;
1320;SDS011;653;51.480;11.992;2022-10-17T06:24:58;8.23;;;5.67;;
1320;SDS011;653;51.480;11.992;2022-10-17T06:27:25;7.43;;;5.90;;
1320;SDS011;653;51.480;11.992;2022-10-17T06:29:52;8.37;;;5.90;;
1320;SDS011;653;51.480;11.992;2022-10-17T06:32:19;13.90;;;6.40;;
1320;SDS011;653;51.480;11.992;2022-10-17T06:34:46;9.63;;;5.20;;
1320;SDS011;653;51.480;11.992;2022-10-17T06:37:13;9.57;;;5.60;;
1320;SDS011;653;51.480;11.992;2022-10-17T06:39:38;6.80;;;5.57;;
1320;SDS011;653;51.480;11.992;2022-10-17T06:42:05;7.47;;;5.83;;
1320;SDS011;653;51.480;11.992;2022-10-17T06:44:34;6.73;;;4.90;;
1320;SDS011;653;51.480;11.992;2022-10-17T06:47:01;9.73;;;4.60;;
1320;SDS011;653;51.480;11.992;2022-10-17T06:49:28;8.40;;;5.57;;
1320;SDS011;653;51.480;11.992;2022-10-17T06:51:55;7.83;;;5.17;;
1320;SDS011;653;51.480;11.992;2022-10-17T06:54:22;4.70;;;4.30;;
1320;SDS011;653;51.480;11.992;2022-10-17T06:56:48;6.33;;;4.07;;
1320;SDS011;653;51.480;11.992;2022-10-17T06:59:14;7.03;;;5.33;;
1320;SDS011;653;51.480;11.992;2022-10-17T07:01:39;6.67;;;4.60;;
1320;SDS011;653;51.480;11.992;2022-10-17T07:04:05;7.23;;;4.50;;
1320;SDS011;653;51.480;11.992;2022-10-17T07:06:31;10.40;;;5.10;;
1320;SDS011;653;51.480;11.992;2022-10-17T07:08:59;6.20;;;4.30;;
1320;SDS011;653;51.480;11.992;2022-10-17T07:11:28;7.23;;;4.40;;
1320;SDS011;653;51.480;11.992;2022-10-17T07:13:54;14.23;;;4.83;;
1320;SDS011;653;51.480;11.992;2022-10-17T07:16:21;9.30;;;4.77;;
1320;SDS011;653;51.480;11.992;2022-10-17T07:18:49;10.23;;;4.47;;
1320;SDS011;653;51.480;11.992;2022-10-17T07:21:15;8.77;;;4.40;;
1320;SDS011;653;51.480;11.992;2022-10-17T07:23:41;5.13;;;4.20;;
1320;SDS011;653;51.480;11.992;2022-10-17T07:26:10;5.30;;;4.30;;
1320;SDS011;653;51.480;11.992;2022-10-17T07:28:39;5.83;;;4.27;;
1320;SDS011;653;51.480;11.992;2022-10-17T07:31:08;6.70;;;4.10;;
1320;SDS011;653;51.480;11.992;2022-10-17T07:33:36;9.97;;;4.83;;
1320;SDS011;653;51.480;11.992;2022-10-17T07:36:03;7.00;;;3.80;;
1320;SDS011;653;51.480;11.992;2022-10-17T07:38:30;4.27;;;3.73;;
1320;SDS011;653;51.480;11.992;2022-10-17T07:40:58;10.20;;;4.00;;
1320;SDS011;653;51.480;11.992;2022-10-17T07:43:27;10.87;;;4.07;;
1320;SDS011;653;51.480;11.992;2022-10-17T07:45:54;7.57;;;4.20;;
1320;SDS011;653;51.480;11.992;2022-10-17T07:48:22;7.47;;;4.27;;
1320;SDS011;653;51.480;11.992;2022-10-17T07:50:48;9.60;;;4.23;;
1320;SDS011;653;51.480;11.992;2022-10-17T07:53:13;5.83;;;3.77;;
1320;SDS011;653;51.480;11.992;2022-10-17T07:55:41;12.13;;;4.20;;
1320;SDS011;653;51.480;11.992;2022-10-17T07:58:08;6.90;;;3.50;;
1320;SDS011;653;51.480;11.992;2022-10-17T08:00:35;7.47;;;4.67;;
1320;SDS011;653;51.480;11.992;2022-10-17T08:03:02;7.13;;;4.37;;
1320;SDS011;653;51.480;11.992;2022-10-17T08:05:29;7.93;;;4.00;;
1320;SDS011;653;51.480;11.992;2022-10-17T08:07:56;7.63;;;4.10;;
1320;SDS011;653;51.480;11.992;2022-10-17T08:10:23;6.00;;;3.70;;
1320;SDS011;653;51.480;11.992;2022-10-17T08:12:55;11.37;;;5.40;;
1320;SDS011;653;51.480;11.992;2022-10-17T08:15:23;8.57;;;4.47;;
1320;SDS011;653;51.480;11.992;2022-10-17T08:17:50;7.10;;;4.37;;
1320;SDS011;653;51.480;11.992;2022-10-17T08:20:16;8.33;;;4.27;;
1320;SDS011;653;51.480;11.992;2022-10-17T08:22:46;7.23;;;4.03;;
1320;SDS011;653;51.480;11.992;2022-10-17T08:25:17;6.93;;;4.47;;
1320;SDS011;653;51.480;11.992;2022-10-17T08:27:44;5.13;;;3.43;;
1320;SDS011;653;51.480;11.992;2022-10-17T08:30:11;5.97;;;3.67;;
1320;SDS011;653;51.480;11.992;2022-10-17T08:32:37;5.63;;;3.07;;
1320;SDS011;653;51.480;11.992;2022-10-17T08:35:04;4.10;;;3.03;;
1320;SDS011;653;51.480;11.992;2022-10-17T08:37:30;5.60;;;4.07;;
1320;SDS011;653;51.480;11.992;2022-10-17T08:39:56;9.17;;;4.07;;
1320;SDS011;653;51.480;11.992;2022-10-17T08:45:17;8.53;;;3.83;;
1320;SDS011;653;51.480;11.992;2022-10-17T08:48:04;8.93;;;3.93;;
1320;SDS011;653;51.480;11.992;2022-10-17T08:50:43;7.93;;;3.90;;
1320;SDS011;653;51.480;11.992;2022-10-17T08:53:38;14.00;;;3.90;;
1320;SDS011;653;51.480;11.992;2022-10-17T08:56:29;4.40;;;2.93;;
1320;SDS011;653;51.480;11.992;2022-10-17T08:59:03;5.00;;;3.67;;
1320;SDS011;653;51.480;11.992;2022-10-17T09:01:32;7.67;;;3.90;;
1320;SDS011;653;51.480;11.992;2022-10-17T09:07:16;6.73;;;3.77;;
1320;SDS011;653;51.480;11.992;2022-10-17T09:10:05;4.00;;;3.40;;
1320;SDS011;653;51.480;11.992;2022-10-17T09:22:13;11.23;;;3.70;;
1320;SDS011;653;51.480;11.992;2022-10-17T09:25:04;9.40;;;4.23;;
1320;SDS011;653;51.480;11.992;2022-10-17T09:33:18;6.47;;;3.50;;
1320;SDS011;653;51.480;11.992;2022-10-17T09:35:48;4.53;;;3.70;;
1320;SDS011;653;51.480;11.992;2022-10-17T09:38:17;7.50;;;4.17;;
1320;SDS011;653;51.480;11.992;2022-10-17T09:41:32;5.10;;;3.80;;
1320;SDS011;653;51.480;11.992;2022-10-17T09:44:11;6.40;;;3.67;;
1320;SDS011;653;51.480;11.992;2022-10-17T09:46:42;10.07;;;4.20;;
1320;SDS011;653;51.480;11.992;2022-10-17T09:49:22;5.50;;;3.70;;
1320;SDS011;653;51.480;11.992;2022-10-17T09:51:53;6.63;;;3.37;;
1320;SDS011;653;51.480;11.992;2022-10-17T09:54:25;5.60;;;3.30;;
1320;SDS011;653;51.480;11.992;2022-10-17T09:56:57;6.30;;;4.50;;
1320;SDS011;653;51.480;11.992;2022-10-17T09:59:36;4.20;;;3.40;;
1320;SDS011;653;51.480;11.992;2022-10-17T10:02:11;4.47;;;3.87;;
1320;SDS011;653;51.480;11.992;2022-10-17T10:07:44;6.30;;;3.67;;
1320;SDS011;653;51.480;11.992;2022-10-17T10:10:26;3.73;;;3.40;;
1320;SDS011;653;51.480;11.992;2022-10-17T10:15:43;3.90;;;3.47;;
1320;SDS011;653;51.480;11.992;2022-10-17T10:18:27;7.73;;;3.73;;
1320;SDS011;653;51.480;11.992;2022-10-17T10:21:18;8.93;;;4.43;;
1320;SDS011;653;51.480;11.992;2022-10-17T10:26:44;3.67;;;3.33;;
1320;SDS011;653;51.480;11.992;2022-10-17T10:34:57;7.50;;;3.93;;
1320;SDS011;653;51.480;11.992;2022-10-17T10:37:29;4.97;;;3.53;;
1320;SDS011;653;51.480;11.992;2022-10-17T10:40:00;5.80;;;4.77;;
1320;SDS011;653;51.480;11.992;2022-10-17T10:42:35;4.17;;;3.17;;
1320;SDS011;653;51.480;11.992;2022-10-17T10:47:59;6.80;;;4.57;;
1320;SDS011;653;51.480;11.992;2022-10-17T10:50:40;5.53;;;4.47;;
1320;SDS011;653;51.480;11.992;2022-10-17T10:56:16;6.10;;;3.83;;
1320;SDS011;653;51.480;11.992;2022-10-17T11:14:57;8.03;;;4.40;;
1320;SDS011;653;51.480;11.992;2022-10-17T11:17:31;5.10;;;3.97;;
1320;SDS011;653;51.480;11.992;2022-10-17T11:22:43;4.70;;;3.37;;
1320;SDS011;653;51.480;11.992;2022-10-17T11:27:37;6.37;;;3.47;;
1320;SDS011;653;51.480;11.992;2022-10-17T11:30:03;4.73;;;3.17;;
1320;SDS011;653;51.480;11.992;2022-10-17T11:33:04;4.00;;;3.43;;
1320;SDS011;653;51.480;11.992;2022-10-17T11:35:46;4.33;;;3.63;;
1320;SDS011;653;51.480;11.992;2022-10-17T11:38:27;16.43;;;3.97;;
1320;SDS011;653;51.480;11.992;2022-10-17T11:41:40;7.50;;;4.50;;
1320;SDS011;653;51.480;11.992;2022-10-17T11:44:18;7.40;;;4.77;;
1320;SDS011;653;51.480;11.992;2022-10-17T11:46:47;7.90;;;4.00;;
1320;SDS011;653;51.480;11.992;2022-10-17T11:49:46;8.50;;;4.97;;
1320;SDS011;653;51.480;11.992;2022-10-17T11:52:53;15.50;;;5.70;;
1320;SDS011;653;51.480;11.992;2022-10-17T11:55:24;8.30;;;4.20;;
1320;SDS011;653;51.480;11.992;2022-10-17T12:06:51;10.73;;;4.70;;
1320;SDS011;653;51.480;11.992;2022-10-17T12:12:27;5.47;;;3.33;;
1320;SDS011;653;51.480;11.992;2022-10-17T12:15:25;4.30;;;3.70;;
1320;SDS011;653;51.480;11.992;2022-10-17T12:18:01;6.10;;;3.43;;
1320;SDS011;653;51.480;11.992;2022-10-17T12:20:28;3.57;;;3.27;;
1320;SDS011;653;51.480;11.992;2022-10-17T12:25:54;5.43;;;2.80;;
1320;SDS011;653;51.480;11.992;2022-10-17T12:28:31;4.20;;;3.33;;
1320;SDS011;653;51.480;11.992;2022-10-17T12:33:54;4.00;;;3.70;;
1320;SDS011;653;51.480;11.992;2022-10-17T12:49:50;4.30;;;3.90;;
1320;SDS011;653;51.480;11.992;2022-10-17T12:57:55;4.37;;;3.33;;
1320;SDS011;653;51.480;11.992;2022-10-17T13:03:52;4.40;;;3.43;;
1320;SDS011;653;51.480;11.992;2022-10-17T13:06:23;4.80;;;3.27;;
1320;SDS011;653;51.480;11.992;2022-10-17T13:09:02;6.63;;;3.43;;
1320;SDS011;653;51.480;11.992;2022-10-17T13:11:31;6.20;;;3.67;;
1320;SDS011;653;51.480;11.992;2022-10-17T13:14:01;5.23;;;3.23;;
1320;SDS011;653;51.480;11.992;2022-10-17T13:16:35;4.57;;;3.40;;
1320;SDS011;653;51.480;11.992;2022-10-17T13:19:10;7.20;;;3.10;;
1320;SDS011;653;51.480;11.992;2022-10-17T13:24:37;3.57;;;3.27;;
1320;SDS011;653;51.480;11.992;2022-10-17T13:27:06;6.50;;;3.60;;
1320;SDS011;653;51.480;11.992;2022-10-17T13:29:47;5.40;;;3.20;;
1320;SDS011;653;51.480;11.992;2022-10-17T13:32:12;3.90;;;3.30;;
1320;SDS011;653;51.480;11.992;2022-10-17T13:35:06;8.10;;;3.40;;
1320;SDS011;653;51.480;11.992;2022-10-17T13:37:54;7.43;;;3.80;;
1320;SDS011;653;51.480;11.992;2022-10-17T13:40:26;4.30;;;3.90;;
1320;SDS011;653;51.480;11.992;2022-10-17T13:42:55;4.50;;;3.97;;
1320;SDS011;653;51.480;11.992;2022-10-17T13:45:33;4.73;;;3.73;;
1320;SDS011;653;51.480;11.992;2022-10-17T13:48:03;3.92;;;3.63;;
1320;SDS011;653;51.480;11.992;2022-10-17T13:50:37;5.32;;;3.53;;
1320;SDS011;653;51.480;11.992;2022-10-17T13:53:25;6.37;;;3.33;;
1320;SDS011;653;51.480;11.992;2022-10-17T13:56:06;3.87;;;3.40;;
1320;SDS011;653;51.480;11.992;2022-10-17T13:58:53;3.80;;;3.50;;
1320;SDS011;653;51.480;11.992;2022-10-17T14:01:26;5.03;;;3.33;;
1320;SDS011;653;51.480;11.992;2022-10-17T14:03:53;3.67;;;3.37;;
1320;SDS011;653;51.480;11.992;2022-10-17T14:06:22;5.30;;;3.70;;
1320;SDS011;653;51.480;11.992;2022-10-17T14:09:15;3.80;;;3.50;;
1320;SDS011;653;51.480;11.992;2022-10-17T14:12:09;4.93;;;3.60;;
1320;SDS011;653;51.480;11.992;2022-10-17T14:14:38;5.70;;;3.73;;
1320;SDS011;653;51.480;11.992;2022-10-17T14:17:20;5.03;;;3.60;;
1320;SDS011;653;51.480;11.992;2022-10-17T14:19:53;4.20;;;3.80;;
1320;SDS011;653;51.480;11.992;2022-10-17T14:22:27;4.03;;;3.63;;
1320;SDS011;653;51.480;11.992;2022-10-17T14:24:54;4.40;;;3.70;;
1320;SDS011;653;51.480;11.992;2022-10-17T14:27:37;5.10;;;3.63;;
1320;SDS011;653;51.480;11.992;2022-10-17T14:32:57;4.37;;;3.90;;
1320;SDS011;653;51.480;11.992;2022-10-17T14:35:25;5.67;;;4.13;;
1320;SDS011;653;51.480;11.992;2022-10-17T14:37:52;4.28;;;3.70;;
1320;SDS011;653;51.480;11.992;2022-10-17T14:40:30;3.67;;;3.38;;
1320;SDS011;653;51.480;11.992;2022-10-17T14:43:02;4.28;;;3.50;;
1320;SDS011;653;51.480;11.992;2022-10-17T14:45:37;4.00;;;3.67;;
1320;SDS011;653;51.480;11.992;2022-10-17T14:48:12;3.95;;;3.55;;
1320;SDS011;653;51.480;11.992;2022-10-17T14:50:41;3.75;;;3.45;;
1320;SDS011;653;51.480;11.992;2022-10-17T14:53:32;4.53;;;3.10;;
1320;SDS011;653;51.480;11.992;2022-10-17T14:56:00;5.87;;;3.60;;
1320;SDS011;653;51.480;11.992;2022-10-17T14:58:29;5.50;;;3.60;;
1320;SDS011;653;51.480;11.992;2022-10-17T15:00:57;4.97;;;3.77;;
1320;SDS011;653;51.480;11.992;2022-10-17T15:03:24;7.00;;;4.47;;
1320;SDS011;653;51.480;11.992;2022-10-17T15:06:08;3.93;;;3.30;;
1320;SDS011;653;51.480;11.992;2022-10-17T15:08:43;6.33;;;3.93;;
1320;SDS011;653;51.480;11.992;2022-10-17T15:11:11;4.93;;;3.70;;
1320;SDS011;653;51.480;11.992;2022-10-17T15:13:41;4.40;;;3.70;;
1320;SDS011;653;51.480;11.992;2022-10-17T15:16:23;4.37;;;3.50;;
1320;SDS011;653;51.480;11.992;2022-10-17T15:18:51;5.83;;;3.60;;
1320;SDS011;653;51.480;11.992;2022-10-17T15:21:28;4.73;;;4.00;;
1320;SDS011;653;51.480;11.992;2022-10-17T15:23:56;4.20;;;3.77;;
1320;SDS011;653;51.480;11.992;2022-10-17T15:26:29;8.50;;;3.73;;
1320;SDS011;653;51.480;11.992;2022-10-17T15:28:59;5.67;;;3.87;;
1320;SDS011;653;51.480;11.992;2022-10-17T15:31:26;3.93;;;3.63;;
1320;SDS011;653;51.480;11.992;2022-10-17T15:33:53;4.30;;;3.90;;
1320;SDS011;653;51.480;11.992;2022-10-17T15:36:29;5.60;;;3.77;;
1320;SDS011;653;51.480;11.992;2022-10-17T15:39:04;4.10;;;3.80;;
1320;SDS011;653;51.480;11.992;2022-10-17T15:41:31;7.93;;;4.00;;
1320;SDS011;653;51.480;11.992;2022-10-17T15:43:58;6.10;;;4.20;;
1320;SDS011;653;51.480;11.992;2022-10-17T15:46:27;4.88;;;4.20;;
1320;SDS011;653;51.480;11.992;2022-10-17T15:48:55;4.97;;;4.13;;
1320;SDS011;653;51.480;11.992;2022-10-17T15:51:21;5.00;;;4.60;;
1320;SDS011;653;51.480;11.992;2022-10-17T15:53:49;5.30;;;3.53;;
1320;SDS011;653;51.480;11.992;2022-10-17T15:56:21;5.17;;;3.90;;
1320;SDS011;653;51.480;11.992;2022-10-17T15:58:49;6.23;;;4.03;;
1320;SDS011;653;51.480;11.992;2022-10-17T16:01:33;4.90;;;4.50;;
1320;SDS011;653;51.480;11.992;2022-10-17T16:04:00;4.17;;;3.40;;
1320;SDS011;653;51.480;11.992;2022-10-17T16:06:27;3.73;;;3.40;;
1320;SDS011;653;51.480;11.992;2022-10-17T16:08:57;5.30;;;3.77;;
1320;SDS011;653;51.480;11.992;2022-10-17T16:11:36;3.50;;;3.03;;
1320;SDS011;653;51.480;11.992;2022-10-17T16:14:05;4.10;;;3.70;;
1320;SDS011;653;51.480;11.992;2022-10-17T16:16:34;4.23;;;3.23;;
1320;SDS011;653;51.480;11.992;2022-10-17T16:19:00;7.53;;;3.70;;
1320;SDS011;653;51.480;11.992;2022-10-17T16:21:28;5.40;;;4.30;;
1320;SDS011;653;51.480;11.992;2022-10-17T16:23:57;4.00;;;3.60;;
1320;SDS011;653;51.480;11.992;2022-10-17T16:26:24;7.60;;;4.60;;
1320;SDS011;653;51.480;11.992;2022-10-17T16:28:52;7.73;;;4.43;;
1320;SDS011;653;51.480;11.992;2022-10-17T16:31:26;6.70;;;4.20;;
1320;SDS011;653;51.480;11.992;2022-10-17T16:33:55;9.10;;;4.00;;
1320;SDS011;653;51.480;11.992;2022-10-17T16:36:23;6.33;;;4.33;;
1320;SDS011;653;51.480;11.992;2022-10-17T16:38:51;5.43;;;4.67;;
1320;SDS011;653;51.480;11.992;2022-10-17T16:41:28;7.30;;;4.20;;
1320;SDS011;653;51.480;11.992;2022-10-17T16:43:57;7.10;;;4.03;;
1320;SDS011;653;51.480;11.992;2022-10-17T16:46:31;6.90;;;4.10;;
1320;SDS011;653;51.480;11.992;2022-10-17T16:49:02;5.33;;;4.30;;
1320;SDS011;653;51.480;11.992;2022-10-17T16:51:30;4.73;;;4.30;;
1320;SDS011;653;51.480;11.992;2022-10-17T16:53:57;7.10;;;4.70;;
1320;SDS011;653;51.480;11.992;2022-10-17T16:56:26;4.57;;;4.17;;
1320;SDS011;653;51.480;11.992;2022-10-17T16:58:59;5.00;;;4.23;;
1320;SDS011;653;51.480;11.992;2022-10-17T17:01:26;5.87;;;4.03;;
1320;SDS011;653;51.480;11.992;2022-10-17T17:03:58;4.60;;;3.80;;
1320;SDS011;653;51.480;11.992;2022-10-17T17:06:27;4.87;;;4.00;;
1320;SDS011;653;51.480;11.992;2022-10-17T17:08:54;4.70;;;3.83;;
1320;SDS011;653;51.480;11.992;2022-10-17T17:11:25;4.17;;;3.77;;
1320;SDS011;653;51.480;11.992;2022-10-17T17:13:57;3.70;;;3.20;;
1320;SDS011;653;51.480;11.992;2022-10-17T17:19:18;6.30;;;3.67;;
1320;SDS011;653;51.480;11.992;2022-10-17T17:21:47;5.17;;;3.87;;
1320;SDS011;653;51.480;11.992;2022-10-17T17:24:19;9.23;;;3.57;;
1320;SDS011;653;51.480;11.992;2022-10-17T17:26:53;6.90;;;4.37;;
1320;SDS011;653;51.480;11.992;2022-10-17T17:29:21;3.97;;;3.57;;
1320;SDS011;653;51.480;11.992;2022-10-17T17:31:48;6.77;;;3.90;;
1320;SDS011;653;51.480;11.992;2022-10-17T17:34:15;9.20;;;4.00;;
1320;SDS011;653;51.480;11.992;2022-10-17T17:36:46;5.10;;;4.60;;
1320;SDS011;653;51.480;11.992;2022-10-17T17:39:14;4.30;;;3.53;;
1320;SDS011;653;51.480;11.992;2022-10-17T17:41:44;9.77;;;4.53;;
1320;SDS011;653;51.480;11.992;2022-10-17T17:44:11;5.33;;;4.10;;
1320;SDS011;653;51.480;11.992;2022-10-17T17:46:40;5.30;;;3.47;;
1320;SDS011;653;51.480;11.992;2022-10-17T17:49:09;6.40;;;3.70;;
1320;SDS011;653;51.480;11.992;2022-10-17T17:51:36;5.33;;;3.93;;
1320;SDS011;653;51.480;11.992;2022-10-17T17:54:03;8.20;;;4.77;;
1320;SDS011;653;51.480;11.992;2022-10-17T17:56:29;7.53;;;4.30;;
1320;SDS011;653;51.480;11.992;2022-10-17T17:58:59;4.80;;;3.97;;
1320;SDS011;653;51.480;11.992;2022-10-17T18:01:29;4.30;;;3.90;;
1320;SDS011;653;51.480;11.992;2022-10-17T18:04:00;8.53;;;4.47;;
1320;SDS011;653;51.480;11.992;2022-10-17T18:06:27;5.20;;;4.70;;
1320;SDS011;653;51.480;11.992;2022-10-17T18:08:57;4.93;;;4.03;;